createdAt,value
2022-11-06T00:00:57.116Z,101396.16
2022-11-06T00:03:23.792Z,101399.47
2022-11-06T00:05:50.504Z,101393.63
2022-11-06T00:08:30.367Z,101397.06
2022-11-06T00:10:56.953Z,101391.63
2022-11-06T00:13:23.421Z,101395.25
2022-11-06T00:15:50.148Z,101395.63
2022-11-06T00:18:16.467Z,101397.88
2022-11-06T00:20:42.838Z,101400.31
2022-11-06T00:23:09.142Z,101405.28
2022-11-06T00:25:35.644Z,101390.50
2022-11-06T00:28:01.975Z,101388.03
2022-11-06T00:30:28.288Z,101387.03
2022-11-06T00:32:54.598Z,101387.59
2022-11-06T00:35:20.881Z,101385.88
2022-11-06T00:37:47.219Z,101399.59
2022-11-06T00:40:13.545Z,101404.19
2022-11-06T00:42:39.891Z,101395.53
2022-11-06T00:45:06.818Z,101398.59
2022-11-06T00:47:33.089Z,101388.16
2022-11-06T00:49:59.395Z,101390.84
2022-11-06T00:52:25.733Z,101395.91
2022-11-06T00:54:52.057Z,101383.16
2022-11-06T00:57:18.358Z,101389.66
2022-11-06T00:59:44.682Z,101386.50
2022-11-06T01:02:11.133Z,101376.84
2022-11-06T01:04:37.488Z,101371.63
2022-11-06T01:07:03.826Z,101372.00
2022-11-06T01:09:30.186Z,101371.91
2022-11-06T01:12:14.564Z,101373.06
2022-11-06T01:14:42.171Z,101374.88
2022-11-06T01:17:08.609Z,101364.41
2022-11-06T01:19:34.933Z,101372.25
2022-11-06T01:22:01.456Z,101366.72
2022-11-06T01:24:29.041Z,101346.72
2022-11-06T01:27:24.838Z,101351.59
2022-11-06T01:29:42.478Z,101351.94
2022-11-06T01:32:08.913Z,101349.16
2022-11-06T01:34:35.409Z,101352.47
2022-11-06T01:37:02.042Z,101348.03
2022-11-06T01:39:28.351Z,101338.75
2022-11-06T01:41:55.232Z,101360.19
2022-11-06T01:44:33.432Z,101357.78
2022-11-06T01:47:00.480Z,101357.22
2022-11-06T01:49:30.496Z,101337.56
2022-11-06T01:52:02.886Z,101340.00
2022-11-06T01:54:30.953Z,101336.13
2022-11-06T01:56:59.608Z,101343.88
2022-11-06T01:59:30.143Z,101344.50
2022-11-06T02:01:56.701Z,101326.06
2022-11-06T02:04:25.364Z,101346.69
2022-11-06T02:06:52.682Z,101330.72
2022-11-06T02:09:19.869Z,101327.31
2022-11-06T02:12:06.378Z,101332.16
2022-11-06T02:15:26.740Z,101319.53
2022-11-06T02:18:11.538Z,101296.78
2022-11-06T02:20:46.528Z,101326.94
2022-11-06T02:23:38.512Z,101328.75
2022-11-06T02:26:37.489Z,101320.31
2022-11-06T02:29:09.140Z,101312.59
2022-11-06T02:31:41.392Z,101326.94
2022-11-06T02:34:14.422Z,101311.78
2022-11-06T02:36:50.507Z,101310.38
2022-11-06T02:39:20.861Z,101311.78
2022-11-06T02:41:49.982Z,101302.13
2022-11-06T02:44:20.705Z,101301.56
2022-11-06T02:46:51.467Z,101313.50
2022-11-06T02:49:23.618Z,101301.81
2022-11-06T02:51:52.374Z,101300.47
2022-11-06T02:54:21.756Z,101298.22
2022-11-06T02:56:52.097Z,101304.84
2022-11-06T02:59:26.535Z,101290.88
2022-11-06T03:02:00.670Z,101285.63
2022-11-06T03:04:45.580Z,101280.41
2022-11-06T03:07:28.617Z,101293.31
2022-11-06T03:09:55.674Z,101292.91
2022-11-06T03:12:43.694Z,101303.38
2022-11-06T03:15:16.139Z,101293.03
2022-11-06T03:18:12.353Z,101304.56
2022-11-06T03:20:52.241Z,101293.84
2022-11-06T03:23:24.929Z,101294.06
2022-11-06T03:26:01.986Z,101294.69
2022-11-06T03:28:34.070Z,101296.53
2022-11-06T03:31:05.369Z,101299.59
2022-11-06T03:33:40.448Z,101291.31
2022-11-06T03:36:18.249Z,101289.31
2022-11-06T03:38:51.735Z,101271.56
2022-11-06T03:41:28.051Z,101274.25
2022-11-06T03:43:57.807Z,101284.13
2022-11-06T03:46:26.121Z,101272.00
2022-11-06T03:48:57.832Z,101274.16
2022-11-06T03:51:33.777Z,101281.69
2022-11-06T03:54:05.901Z,101279.03
2022-11-06T03:56:41.232Z,101286.31
2022-11-06T03:59:09.367Z,101272.78
2022-11-06T04:01:40.669Z,101282.53
2022-11-06T04:04:14.889Z,101286.56
2022-11-06T04:06:46.952Z,101284.75
2022-11-06T04:09:16.307Z,101272.44
2022-11-06T04:11:45.129Z,101277.31
2022-11-06T04:14:15.154Z,101267.63
2022-11-06T04:16:46.405Z,101243.84
2022-11-06T04:19:21.742Z,101247.34
2022-11-06T04:22:15.328Z,101245.50
2022-11-06T04:24:57.327Z,101251.19
2022-11-06T04:27:36.295Z,101239.22
2022-11-06T04:30:11.767Z,101245.22
2022-11-06T04:32:51.148Z,101256.69
2022-11-06T04:35:44.044Z,101239.97
2022-11-06T04:38:34.541Z,101259.16
2022-11-06T04:41:22.834Z,101244.72
2022-11-06T04:43:54.448Z,101243.53
2022-11-06T04:46:33.023Z,101236.44
2022-11-06T04:49:02.763Z,101231.00
2022-11-06T04:51:32.759Z,101238.72
2022-11-06T04:53:59.845Z,101220.72
2022-11-06T04:56:33.984Z,101230.63
2022-11-06T04:59:01.813Z,101226.09
2022-11-06T05:01:28.223Z,101212.00
2022-11-06T05:03:54.742Z,101229.00
2022-11-06T05:06:23.554Z,101218.69
2022-11-06T05:08:53.508Z,101234.63
2022-11-06T05:11:19.827Z,101212.09
2022-11-06T05:13:46.128Z,101220.91
2022-11-06T05:16:12.431Z,101211.03
2022-11-06T05:18:38.758Z,101227.38
2022-11-06T05:21:05.362Z,101218.28
2022-11-06T05:23:31.686Z,101221.16
2022-11-06T05:25:57.999Z,101221.13
2022-11-06T05:28:24.299Z,101212.44
2022-11-06T05:30:50.613Z,101215.69
2022-11-06T05:33:16.939Z,101208.41
2022-11-06T05:35:43.219Z,101226.59
2022-11-06T05:38:09.538Z,101221.34
2022-11-06T05:40:35.840Z,101222.00
2022-11-06T05:43:02.122Z,101209.91
2022-11-06T05:45:28.436Z,101221.34
2022-11-06T05:47:54.815Z,101206.09
2022-11-06T05:50:21.343Z,101215.13
2022-11-06T05:52:47.703Z,101194.75
2022-11-06T05:55:15.288Z,101190.91
2022-11-06T05:57:42.361Z,101191.69
2022-11-06T06:00:09.703Z,101195.75
2022-11-06T06:02:36.613Z,101177.78
2022-11-06T06:05:04.441Z,101194.13
2022-11-06T06:07:31.168Z,101181.00
2022-11-06T06:09:57.513Z,101182.88
2022-11-06T06:12:23.976Z,101172.78
2022-11-06T06:14:50.629Z,101172.16
2022-11-06T06:17:17.107Z,101157.84
2022-11-06T06:19:43.407Z,101168.50
2022-11-06T06:22:10.320Z,101168.13
2022-11-06T06:24:36.794Z,101184.44
2022-11-06T06:27:03.297Z,101162.66
2022-11-06T06:29:29.616Z,101158.41
2022-11-06T06:31:56.077Z,101162.88
2022-11-06T06:34:22.382Z,101167.75
2022-11-06T06:36:53.213Z,101153.22
2022-11-06T06:39:20.373Z,101166.75
2022-11-06T06:41:49.880Z,101145.59
2022-11-06T06:44:16.490Z,101140.91
2022-11-06T06:46:42.933Z,101143.34
2022-11-06T06:49:09.293Z,101143.13
2022-11-06T06:51:35.593Z,101144.50
2022-11-06T06:54:01.907Z,101148.97
2022-11-06T06:56:28.234Z,101154.84
2022-11-06T06:58:54.909Z,101157.91
2022-11-06T07:01:21.760Z,101139.19
2022-11-06T07:03:48.215Z,101149.66
2022-11-06T07:06:14.527Z,101134.38
2022-11-06T07:08:40.833Z,101142.84
2022-11-06T07:11:08.862Z,101134.59
2022-11-06T07:13:36.336Z,101147.91
2022-11-06T07:16:08.535Z,101153.00
2022-11-06T07:18:36.150Z,101147.56
2022-11-06T07:21:05.579Z,101155.84
2022-11-06T07:23:31.991Z,101135.47
2022-11-06T07:25:58.288Z,101134.88
2022-11-06T07:28:24.621Z,101130.06
2022-11-06T07:30:50.913Z,101129.72
2022-11-06T07:33:17.253Z,101133.38
2022-11-06T07:35:43.581Z,101128.00
2022-11-06T07:38:09.929Z,101124.78
2022-11-06T07:40:36.686Z,101129.88
2022-11-06T07:43:07.748Z,101127.72
2022-11-06T07:45:34.294Z,101120.25
2022-11-06T07:48:00.914Z,101146.50
2022-11-06T07:50:27.819Z,101133.25
2022-11-06T07:52:54.601Z,101134.47
2022-11-06T07:55:21.209Z,101139.34
2022-11-06T07:57:47.824Z,101108.47
2022-11-06T08:00:14.721Z,101122.03
2022-11-06T08:02:41.515Z,101127.09
2022-11-06T08:05:08.455Z,101123.44
2022-11-06T08:07:34.923Z,101118.81
2022-11-06T08:10:01.307Z,101142.63
2022-11-06T08:12:27.619Z,101122.88
2022-11-06T08:14:53.945Z,101118.41
2022-11-06T08:17:20.553Z,101122.88
2022-11-06T08:19:46.832Z,101138.00
2022-11-06T08:22:13.140Z,101121.03
2022-11-06T08:24:39.447Z,101141.00
2022-11-06T08:27:06.012Z,101127.09
2022-11-06T08:29:35.836Z,101105.31
2022-11-06T08:32:04.837Z,101121.88
2022-11-06T08:34:31.144Z,101104.31
2022-11-06T08:36:57.424Z,101108.38
2022-11-06T08:39:23.755Z,101109.16
2022-11-06T08:41:50.047Z,101104.50
2022-11-06T08:44:16.493Z,101096.47
2022-11-06T08:46:45.397Z,101092.81
2022-11-06T08:49:15.666Z,101081.91
2022-11-06T08:51:41.967Z,101082.13
2022-11-06T08:54:09.892Z,101093.03
2022-11-06T08:56:36.313Z,101081.13
2022-11-06T08:59:02.675Z,101068.81
2022-11-06T09:01:29.113Z,101076.88
2022-11-06T09:03:55.524Z,101063.38
2022-11-06T09:06:21.850Z,101061.34
2022-11-06T09:08:48.213Z,101066.78
2022-11-06T09:11:14.519Z,101065.34
2022-11-06T09:13:40.863Z,101056.09
2022-11-06T09:16:12.760Z,101063.50
2022-11-06T09:18:41.805Z,101048.75
2022-11-06T09:21:08.154Z,101044.50
2022-11-06T09:23:34.685Z,101058.59
2022-11-06T09:26:00.995Z,101042.28
2022-11-06T09:28:27.288Z,101043.72
2022-11-06T09:30:53.598Z,101038.44
2022-11-06T09:33:20.537Z,101038.03
2022-11-06T09:35:47.202Z,101044.03
2022-11-06T09:38:14.080Z,101032.34
2022-11-06T09:40:57.196Z,101034.69
2022-11-06T09:44:05.112Z,101026.00
2022-11-06T09:46:35.777Z,101029.41
2022-11-06T09:49:20.738Z,101012.84
2022-11-06T09:52:01.695Z,101019.31
2022-11-06T09:54:34.876Z,101019.31
2022-11-06T09:57:10.307Z,101020.94
2022-11-06T09:59:38.648Z,101010.84
2022-11-06T10:02:20.582Z,101003.78
2022-11-06T10:04:58.807Z,101011.00
2022-11-06T10:07:28.037Z,101015.66
2022-11-06T10:09:54.742Z,101010.59
2022-11-06T10:12:33.265Z,101013.06
2022-11-06T10:15:07.212Z,101021.34
2022-11-06T10:18:00.336Z,101010.03
2022-11-06T10:20:31.942Z,101005.59
2022-11-06T10:23:12.899Z,100993.91
2022-11-06T10:25:45.936Z,100997.72
2022-11-06T10:28:46.683Z,100983.72
2022-11-06T10:31:31.323Z,100984.50
2022-11-06T10:34:06.744Z,100979.25
2022-11-06T10:36:50.363Z,100982.44
2022-11-06T10:39:36.524Z,100962.84
2022-11-06T10:42:17.192Z,100974.13
2022-11-06T10:44:58.362Z,100960.75
2022-11-06T10:47:31.097Z,100953.69
2022-11-06T10:50:03.543Z,100964.69
2022-11-06T10:52:38.902Z,100954.81
2022-11-06T10:55:42.314Z,100963.94
2022-11-06T10:58:09.900Z,100951.66
2022-11-06T11:00:36.386Z,100945.75
2022-11-06T11:03:06.814Z,100943.78
2022-11-06T11:05:40.972Z,100949.19
2022-11-06T11:08:43.500Z,100957.34
2022-11-06T11:11:29.161Z,100954.75
2022-11-06T11:14:01.552Z,100952.56
2022-11-06T11:16:37.725Z,100947.75
2022-11-06T11:19:25.915Z,100920.50
2022-11-06T11:22:00.036Z,100935.59
2022-11-06T11:24:27.103Z,100922.25
2022-11-06T11:26:58.804Z,100921.25
2022-11-06T11:29:29.207Z,100927.78
2022-11-06T11:32:05.715Z,100908.19
2022-11-06T11:34:35.741Z,100902.59
2022-11-06T11:37:04.726Z,100897.94
2022-11-06T11:39:36.532Z,100897.66
2022-11-06T11:42:31.807Z,100901.41
2022-11-06T11:45:10.495Z,100902.16
2022-11-06T11:47:38.860Z,100891.34
2022-11-06T11:50:33.226Z,100885.16
2022-11-06T11:53:19.009Z,100887.56
2022-11-06T11:55:47.384Z,100868.78
2022-11-06T11:58:29.143Z,100871.34
2022-11-06T12:01:01.670Z,100868.50
2022-11-06T12:03:34.171Z,100861.41
2022-11-06T12:06:11.213Z,100859.53
2022-11-06T12:08:41.520Z,100853.91
2022-11-06T12:11:12.761Z,100850.84
2022-11-06T12:13:39.104Z,100851.47
2022-11-06T12:16:10.415Z,100838.22
2022-11-06T12:18:43.791Z,100830.16
2022-11-06T12:21:34.457Z,100834.03
2022-11-06T12:24:06.518Z,100827.63
2022-11-06T12:26:51.562Z,100827.31
2022-11-06T12:29:27.493Z,100816.59
2022-11-06T12:32:04.010Z,100801.59
2022-11-06T12:34:30.247Z,100809.19
2022-11-06T12:37:17.317Z,100796.00
2022-11-06T12:39:49.140Z,100802.31
2022-11-06T12:42:18.635Z,100786.97
2022-11-06T12:44:46.962Z,100801.38
2022-11-06T12:47:48.123Z,100792.19
2022-11-06T12:50:20.405Z,100782.13
2022-11-06T12:52:55.478Z,100787.31
2022-11-06T12:55:24.526Z,100784.81
2022-11-06T12:58:16.933Z,100779.34
2022-11-06T13:01:16.092Z,100784.47
2022-11-06T13:04:09.019Z,100771.63
2022-11-06T13:06:35.289Z,100770.09
2022-11-06T13:09:13.427Z,100762.84
2022-11-06T13:11:45.780Z,100763.66
2022-11-06T13:14:32.274Z,100765.41
2022-11-06T13:17:11.998Z,100755.13
2022-11-06T13:20:00.582Z,100761.69
2022-11-06T13:22:51.186Z,100763.66
2022-11-06T13:25:26.116Z,100751.25
2022-11-06T13:28:00.419Z,100778.03
2022-11-06T13:30:29.204Z,100767.50
2022-11-06T13:33:06.387Z,100767.38
2022-11-06T13:35:36.399Z,100763.88
2022-11-06T13:38:07.010Z,100769.84
2022-11-06T13:40:39.812Z,100746.50
2022-11-06T13:43:12.827Z,100756.78
2022-11-06T13:46:17.656Z,100765.91
2022-11-06T13:48:52.880Z,100756.47
2022-11-06T13:51:37.694Z,100758.31
2022-11-06T13:54:12.995Z,100751.75
2022-11-06T13:56:54.622Z,100743.88
2022-11-06T13:59:43.461Z,100736.47
2022-11-06T14:02:28.237Z,100737.31
2022-11-06T14:05:22.412Z,100728.28
2022-11-06T14:07:51.369Z,100741.38
2022-11-06T14:10:21.250Z,100742.34
2022-11-06T14:12:48.697Z,100729.69
2022-11-06T14:15:32.250Z,100734.09
2022-11-06T14:18:01.073Z,100723.28
2022-11-06T14:20:35.244Z,100725.84
2022-11-06T14:23:29.409Z,100725.53
2022-11-06T14:26:00.352Z,100719.88
2022-11-06T14:28:41.650Z,100716.50
2022-11-06T14:31:12.696Z,100711.91
2022-11-06T14:33:40.407Z,100730.78
2022-11-06T14:36:33.049Z,100719.72
2022-11-06T14:38:59.392Z,100720.16
2022-11-06T14:41:34.761Z,100726.00
2022-11-06T14:44:14.947Z,100722.63
2022-11-06T14:46:49.641Z,100720.63
2022-11-06T14:49:30.480Z,100716.63
2022-11-06T14:52:06.441Z,100723.09
2022-11-06T14:54:37.131Z,100722.75
2022-11-06T14:57:04.486Z,100715.13
2022-11-06T14:59:38.507Z,100734.91
2022-11-06T15:02:27.518Z,100728.88
2022-11-06T15:05:03.413Z,100727.69
2022-11-06T15:08:04.605Z,100730.00
2022-11-06T15:10:54.706Z,100730.66
2022-11-06T15:13:25.845Z,100745.84
2022-11-06T15:16:01.835Z,100727.56
2022-11-06T15:18:28.985Z,100726.03
2022-11-06T15:20:59.862Z,100705.75
2022-11-06T15:23:38.828Z,100714.06
2022-11-06T15:26:28.284Z,100712.47
2022-11-06T15:29:29.169Z,100709.06
2022-11-06T15:32:02.821Z,100695.41
2022-11-06T15:34:36.494Z,100694.44
2022-11-06T15:37:17.693Z,100691.88
2022-11-06T15:39:53.578Z,100700.13
2022-11-06T15:42:27.548Z,100689.28
2022-11-06T15:45:09.596Z,100686.88
2022-11-06T15:47:35.912Z,100673.19
2022-11-06T15:50:23.709Z,100672.81
2022-11-06T15:52:50.183Z,100666.16
2022-11-06T15:55:34.788Z,100676.41
2022-11-06T15:58:16.586Z,100679.63
2022-11-06T16:00:43.604Z,100672.56
2022-11-06T16:03:14.828Z,100665.75
2022-11-06T16:05:41.839Z,100672.34
2022-11-06T16:08:13.734Z,100661.66
2022-11-06T16:10:42.034Z,100652.59
2022-11-06T16:13:12.633Z,100640.72
2022-11-06T16:15:42.075Z,100629.63
2022-11-06T16:18:29.610Z,100631.59
2022-11-06T16:21:09.687Z,100638.41
2022-11-06T16:23:44.855Z,100637.97
2022-11-06T16:26:15.215Z,100628.72
2022-11-06T16:28:43.956Z,100617.25
2022-11-06T16:31:17.621Z,100613.25
2022-11-06T16:34:01.700Z,100610.81
2022-11-06T16:36:30.349Z,100601.97
2022-11-06T16:39:48.328Z,100600.28
2022-11-06T16:42:24.029Z,100588.03
2022-11-06T16:45:15.756Z,100574.13
2022-11-06T16:47:42.222Z,100579.78
2022-11-06T16:50:42.435Z,100574.38
2022-11-06T16:53:09.678Z,100568.31
2022-11-06T16:55:36.307Z,100558.06
2022-11-06T16:58:03.946Z,100543.78
2022-11-06T17:00:31.709Z,100524.16
2022-11-06T17:03:05.000Z,100554.28
2022-11-06T17:05:41.188Z,100525.78
2022-11-06T17:08:36.867Z,100535.25
2022-11-06T17:11:21.436Z,100511.34
2022-11-06T17:13:49.757Z,100532.66
2022-11-06T17:16:19.414Z,100508.91
2022-11-06T17:18:46.377Z,100513.34
2022-11-06T17:21:15.369Z,100517.38
2022-11-06T17:23:42.241Z,100506.13
2022-11-06T17:26:17.671Z,100530.66
2022-11-06T17:28:44.341Z,100515.59
2022-11-06T17:31:13.036Z,100519.25
2022-11-06T17:33:40.259Z,100525.06
2022-11-06T17:36:07.926Z,100514.38
2022-11-06T17:38:34.330Z,100509.16
2022-11-06T17:41:00.645Z,100516.59
2022-11-06T17:43:26.965Z,100513.38
2022-11-06T17:45:53.285Z,100522.63
2022-11-06T17:48:19.599Z,100524.81
2022-11-06T17:50:45.950Z,100522.66
2022-11-06T17:53:12.488Z,100504.75
2022-11-06T17:55:39.058Z,100518.19
2022-11-06T17:58:05.366Z,100507.16
2022-11-06T18:00:31.706Z,100492.47
2022-11-06T18:03:02.466Z,100510.16
2022-11-06T18:05:29.087Z,100505.34
2022-11-06T18:07:55.427Z,100497.13
2022-11-06T18:10:26.058Z,100508.75
2022-11-06T18:12:55.386Z,100505.97
2022-11-06T18:15:24.039Z,100507.59
2022-11-06T18:17:50.348Z,100509.84
2022-11-06T18:20:16.676Z,100486.31
2022-11-06T18:22:43.032Z,100507.78
2022-11-06T18:25:09.374Z,100505.41
2022-11-06T18:27:35.732Z,100491.53
2022-11-06T18:30:02.099Z,100487.31
2022-11-06T18:32:28.448Z,100498.75
2022-11-06T18:34:54.770Z,100501.00
2022-11-06T18:37:21.069Z,100492.97
2022-11-06T18:39:47.361Z,100490.78
2022-11-06T18:42:13.701Z,100496.19
2022-11-06T18:44:40.023Z,100481.75
2022-11-06T18:47:06.577Z,100497.81
2022-11-06T18:49:32.908Z,100485.94
2022-11-06T18:51:59.225Z,100480.94
2022-11-06T18:54:29.265Z,100484.75
2022-11-06T18:56:55.602Z,100486.97
2022-11-06T18:59:21.923Z,100483.56
2022-11-06T19:01:48.332Z,100486.53
2022-11-06T19:04:14.972Z,100480.53
2022-11-06T19:06:41.336Z,100487.19
2022-11-06T19:09:08.487Z,100478.34
2022-11-06T19:11:34.967Z,100498.41
2022-11-06T19:14:01.348Z,100470.50
2022-11-06T19:16:27.740Z,100483.97
2022-11-06T19:21:28.693Z,100501.06
2022-11-06T19:23:58.937Z,100489.19
2022-11-06T19:26:31.717Z,100491.41
2022-11-06T19:28:58.613Z,100496.63
2022-11-06T19:31:28.021Z,100485.41
2022-11-06T19:34:01.913Z,100494.44
2022-11-06T19:36:29.202Z,100470.13
2022-11-06T19:38:55.931Z,100478.78
2022-11-06T19:41:22.261Z,100491.03
2022-11-06T19:43:48.614Z,100479.75
2022-11-06T19:46:19.459Z,100490.00
2022-11-06T19:48:48.989Z,100500.72
2022-11-06T19:51:16.209Z,100508.34
2022-11-06T19:53:42.562Z,100487.66
2022-11-06T19:56:10.984Z,100501.91
2022-11-06T19:58:37.303Z,100491.47
2022-11-06T20:01:09.603Z,100500.91
2022-11-06T20:03:36.966Z,100478.81
2022-11-06T20:06:07.759Z,100495.06
2022-11-06T20:08:35.248Z,100478.19
2022-11-06T20:11:03.277Z,100479.38
2022-11-06T20:13:29.606Z,100474.16
2022-11-06T20:15:58.816Z,100472.38
2022-11-06T20:18:25.128Z,100478.59
2022-11-06T20:20:52.467Z,100482.81
2022-11-06T20:23:18.784Z,100488.22
2022-11-06T20:25:45.164Z,100493.25
2022-11-06T20:28:11.557Z,100485.81
2022-11-06T20:30:37.869Z,100509.16
2022-11-06T20:33:04.204Z,100510.16
2022-11-06T20:35:30.489Z,100497.50
2022-11-06T20:37:56.822Z,100502.13
2022-11-06T20:40:23.166Z,100502.13
2022-11-06T20:42:49.518Z,100511.53
2022-11-06T20:45:15.838Z,100504.31
2022-11-06T20:47:42.182Z,100511.56
2022-11-06T20:50:08.791Z,100512.16
2022-11-06T20:52:35.120Z,100513.13
2022-11-06T20:55:01.479Z,100520.78
2022-11-06T20:57:27.824Z,100516.56
2022-11-06T20:59:54.167Z,100518.34
2022-11-06T21:02:20.575Z,100516.38
2022-11-06T21:04:47.177Z,100522.56
2022-11-06T21:07:13.631Z,100534.84
2022-11-06T21:09:39.996Z,100535.44
2022-11-06T21:12:06.842Z,100530.59
2022-11-06T21:14:33.183Z,100527.19
2022-11-06T21:16:59.551Z,100537.25
2022-11-06T21:19:25.882Z,100546.28
2022-11-06T21:21:52.218Z,100523.53
2022-11-06T21:24:18.573Z,100531.00
2022-11-06T21:26:44.904Z,100533.78
2022-11-06T21:29:11.401Z,100527.56
2022-11-06T21:31:38.053Z,100540.81
2022-11-06T21:34:04.553Z,100524.31
2022-11-06T21:36:35.507Z,100541.59
2022-11-06T21:39:07.279Z,100539.56
2022-11-06T21:41:34.054Z,100545.38
2022-11-06T21:44:02.248Z,100554.22
2022-11-06T21:46:28.626Z,100531.91
2022-11-06T21:48:55.351Z,100550.78
2022-11-06T21:51:25.093Z,100553.34
2022-11-06T21:53:51.654Z,100555.78
2022-11-06T21:56:22.178Z,100556.34
2022-11-06T21:58:54.229Z,100554.53
2022-11-06T22:01:21.069Z,100570.19
2022-11-06T22:03:47.777Z,100554.28
2022-11-06T22:06:17.969Z,100547.03
2022-11-06T22:08:45.562Z,100552.84
2022-11-06T22:11:27.687Z,100567.94
2022-11-06T22:13:55.332Z,100554.44
2022-11-06T22:16:24.968Z,100567.91
2022-11-06T22:18:51.453Z,100567.47
2022-11-06T22:21:20.990Z,100550.00
2022-11-06T22:23:47.328Z,100567.91
2022-11-06T22:26:19.844Z,100565.84
2022-11-06T22:28:46.503Z,100555.38
2022-11-06T22:31:13.226Z,100548.31
2022-11-06T22:33:39.875Z,100560.75
2022-11-06T22:36:09.551Z,100556.34
2022-11-06T22:38:37.341Z,100563.22
2022-11-06T22:41:05.108Z,100578.69
2022-11-06T22:43:32.785Z,100576.06
2022-11-06T22:46:11.443Z,100560.56
2022-11-06T22:48:38.399Z,100562.34
2022-11-06T22:51:13.887Z,100578.06
2022-11-06T22:53:40.824Z,100574.25
2022-11-06T22:56:08.050Z,100578.84
2022-11-06T22:58:34.844Z,100571.59
2022-11-06T23:01:01.372Z,100583.44
2022-11-06T23:03:29.427Z,100580.81
2022-11-06T23:05:55.785Z,100586.84
2022-11-06T23:08:22.431Z,100581.22
2022-11-06T23:10:48.776Z,100581.41
2022-11-06T23:13:15.348Z,100590.72
2022-11-06T23:15:41.858Z,100587.22
2022-11-06T23:18:08.246Z,100597.13
2022-11-06T23:20:34.896Z,100601.72
2022-11-06T23:23:02.859Z,100594.28
2022-11-06T23:25:29.714Z,100584.63
2022-11-06T23:27:57.652Z,100609.38
2022-11-06T23:30:23.991Z,100581.22
2022-11-06T23:32:50.454Z,100591.69
2022-11-06T23:35:17.244Z,100598.19
2022-11-06T23:37:44.210Z,100595.16
2022-11-06T23:40:11.491Z,100589.72
2022-11-06T23:42:38.048Z,100607.84
2022-11-06T23:45:05.852Z,100606.44
2022-11-06T23:47:32.718Z,100605.44
2022-11-06T23:49:59.606Z,100597.59
2022-11-06T23:52:26.133Z,100605.22
2022-11-06T23:54:52.842Z,100605.41
2022-11-06T23:57:19.868Z,100613.47
2022-11-06T23:59:46.239Z,100609.25
